sensor_id;sensor_type;location;lat;lon;timestamp;temperature;humidity
71754;DHT22;59593;51.716;7.016;2023-04-27T00:00:36;4.60;99.90
71754;DHT22;59593;51.716;7.016;2023-04-27T00:03:01;4.50;99.90
71754;DHT22;59593;51.716;7.016;2023-04-27T00:05:37;4.40;99.90
71754;DHT22;59593;51.716;7.016;2023-04-27T00:08:06;4.40;99.90
71754;DHT22;59593;51.716;7.016;2023-04-27T00:10:32;4.30;99.90
71754;DHT22;59593;51.716;7.016;2023-04-27T00:12:58;4.20;99.90
71754;DHT22;59593;51.716;7.016;2023-04-27T00:15:23;4.10;99.90
71754;DHT22;59593;51.716;7.016;2023-04-27T00:17:49;4.20;99.90
71754;DHT22;59593;51.716;7.016;2023-04-27T00:20:15;4.20;99.90
71754;DHT22;59593;51.716;7.016;2023-04-27T00:22:41;4.20;99.90
71754;DHT22;59593;51.716;7.016;2023-04-27T00:25:07;4.10;99.90
71754;DHT22;59593;51.716;7.016;2023-04-27T00:27:32;4.10;99.90
71754;DHT22;59593;51.716;7.016;2023-04-27T00:29:58;4.10;99.90
71754;DHT22;59593;51.716;7.016;2023-04-27T00:32:24;4.20;99.90
71754;DHT22;59593;51.716;7.016;2023-04-27T00:34:49;4.20;99.90
71754;DHT22;59593;51.716;7.016;2023-04-27T00:37:15;4.20;99.90
71754;DHT22;59593;51.716;7.016;2023-04-27T00:39:41;4.10;99.90
71754;DHT22;59593;51.716;7.016;2023-04-27T00:42:06;3.90;99.90
71754;DHT22;59593;51.716;7.016;2023-04-27T00:44:35;3.80;99.90
71754;DHT22;59593;51.716;7.016;2023-04-27T00:47:01;3.70;99.90
71754;DHT22;59593;51.716;7.016;2023-04-27T00:49:27;3.80;99.90
71754;DHT22;59593;51.716;7.016;2023-04-27T00:51:54;3.80;99.90
71754;DHT22;59593;51.716;7.016;2023-04-27T00:54:20;3.70;99.90
71754;DHT22;59593;51.716;7.016;2023-04-27T00:56:50;3.70;99.90
71754;DHT22;59593;51.716;7.016;2023-04-27T00:59:17;3.70;99.90
71754;DHT22;59593;51.716;7.016;2023-04-27T01:01:43;3.60;99.90
71754;DHT22;59593;51.716;7.016;2023-04-27T01:04:08;3.40;99.90
71754;DHT22;59593;51.716;7.016;2023-04-27T01:06:34;3.30;99.90
71754;DHT22;59593;51.716;7.016;2023-04-27T01:08:59;3.40;99.90
71754;DHT22;59593;51.716;7.016;2023-04-27T01:11:25;3.50;99.90
71754;DHT22;59593;51.716;7.016;2023-04-27T01:13:51;3.40;99.90
71754;DHT22;59593;51.716;7.016;2023-04-27T01:16:17;3.40;99.90
71754;DHT22;59593;51.716;7.016;2023-04-27T01:18:43;3.50;99.90
71754;DHT22;59593;51.716;7.016;2023-04-27T01:21:10;3.50;99.90
71754;DHT22;59593;51.716;7.016;2023-04-27T01:23:35;3.40;99.90
71754;DHT22;59593;51.716;7.016;2023-04-27T01:26:02;3.40;99.90
71754;DHT22;59593;51.716;7.016;2023-04-27T01:28:27;3.40;99.90
71754;DHT22;59593;51.716;7.016;2023-04-27T01:30:53;3.40;99.90
71754;DHT22;59593;51.716;7.016;2023-04-27T01:33:18;3.40;99.90
71754;DHT22;59593;51.716;7.016;2023-04-27T01:35:44;3.40;99.90
71754;DHT22;59593;51.716;7.016;2023-04-27T01:38:10;3.40;99.90
71754;DHT22;59593;51.716;7.016;2023-04-27T01:40:37;3.30;99.90
71754;DHT22;59593;51.716;7.016;2023-04-27T01:43:02;3.30;99.90
71754;DHT22;59593;51.716;7.016;2023-04-27T01:45:28;3.30;99.90
71754;DHT22;59593;51.716;7.016;2023-04-27T01:47:53;3.20;99.90
71754;DHT22;59593;51.716;7.016;2023-04-27T01:50:20;3.10;99.90
71754;DHT22;59593;51.716;7.016;2023-04-27T01:52:46;3.10;99.90
71754;DHT22;59593;51.716;7.016;2023-04-27T01:55:12;3.10;99.90
71754;DHT22;59593;51.716;7.016;2023-04-27T01:57:37;3.10;99.90
71754;DHT22;59593;51.716;7.016;2023-04-27T02:00:03;3.10;99.90
71754;DHT22;59593;51.716;7.016;2023-04-27T02:02:30;3.10;99.90
71754;DHT22;59593;51.716;7.016;2023-04-27T02:04:55;3.10;99.90
71754;DHT22;59593;51.716;7.016;2023-04-27T02:07:21;3.10;99.90
71754;DHT22;59593;51.716;7.016;2023-04-27T02:09:47;3.10;99.90
71754;DHT22;59593;51.716;7.016;2023-04-27T02:12:12;3.10;99.90
71754;DHT22;59593;51.716;7.016;2023-04-27T02:14:38;3.10;99.90
71754;DHT22;59593;51.716;7.016;2023-04-27T02:17:03;3.20;99.90
71754;DHT22;59593;51.716;7.016;2023-04-27T02:19:29;3.20;99.90
71754;DHT22;59593;51.716;7.016;2023-04-27T02:21:54;3.20;99.90
71754;DHT22;59593;51.716;7.016;2023-04-27T02:24:20;3.10;99.90
71754;DHT22;59593;51.716;7.016;2023-04-27T02:26:45;3.10;99.90
71754;DHT22;59593;51.716;7.016;2023-04-27T02:29:11;3.00;99.90
71754;DHT22;59593;51.716;7.016;2023-04-27T02:31:37;3.00;99.90
71754;DHT22;59593;51.716;7.016;2023-04-27T02:34:02;3.00;99.90
71754;DHT22;59593;51.716;7.016;2023-04-27T02:36:28;2.80;99.90
71754;DHT22;59593;51.716;7.016;2023-04-27T02:38:53;2.80;99.90
71754;DHT22;59593;51.716;7.016;2023-04-27T02:41:19;2.70;99.90
71754;DHT22;59593;51.716;7.016;2023-04-27T02:43:45;2.60;99.90
71754;DHT22;59593;51.716;7.016;2023-04-27T02:46:11;2.50;99.90
71754;DHT22;59593;51.716;7.016;2023-04-27T02:48:38;2.50;99.90
71754;DHT22;59593;51.716;7.016;2023-04-27T02:51:03;2.40;99.90
71754;DHT22;59593;51.716;7.016;2023-04-27T02:53:29;2.40;99.90
71754;DHT22;59593;51.716;7.016;2023-04-27T02:55:55;2.50;99.90
71754;DHT22;59593;51.716;7.016;2023-04-27T02:58:21;2.50;99.90
71754;DHT22;59593;51.716;7.016;2023-04-27T03:00:47;2.50;99.90
71754;DHT22;59593;51.716;7.016;2023-04-27T03:03:17;2.50;99.90
71754;DHT22;59593;51.716;7.016;2023-04-27T03:05:43;2.60;99.90
71754;DHT22;59593;51.716;7.016;2023-04-27T03:08:08;2.60;99.90
71754;DHT22;59593;51.716;7.016;2023-04-27T03:10:34;2.50;99.90
71754;DHT22;59593;51.716;7.016;2023-04-27T03:12:59;2.40;99.90
71754;DHT22;59593;51.716;7.016;2023-04-27T03:15:25;2.50;99.90
71754;DHT22;59593;51.716;7.016;2023-04-27T03:17:51;2.50;99.90
71754;DHT22;59593;51.716;7.016;2023-04-27T03:20:16;2.40;99.90
71754;DHT22;59593;51.716;7.016;2023-04-27T03:22:42;2.40;99.90
71754;DHT22;59593;51.716;7.016;2023-04-27T03:25:10;2.40;99.90
71754;DHT22;59593;51.716;7.016;2023-04-27T03:27:35;2.30;99.90
71754;DHT22;59593;51.716;7.016;2023-04-27T03:30:02;2.30;99.90
71754;DHT22;59593;51.716;7.016;2023-04-27T03:32:28;2.20;99.90
71754;DHT22;59593;51.716;7.016;2023-04-27T03:34:54;2.30;99.90
71754;DHT22;59593;51.716;7.016;2023-04-27T03:37:20;2.20;99.90
71754;DHT22;59593;51.716;7.016;2023-04-27T03:39:46;2.20;99.90
71754;DHT22;59593;51.716;7.016;2023-04-27T03:42:11;2.10;99.90
71754;DHT22;59593;51.716;7.016;2023-04-27T03:44:37;2.10;99.90
71754;DHT22;59593;51.716;7.016;2023-04-27T03:47:03;2.10;99.90
71754;DHT22;59593;51.716;7.016;2023-04-27T03:49:33;2.10;99.90
71754;DHT22;59593;51.716;7.016;2023-04-27T03:51:59;2.10;99.90
71754;DHT22;59593;51.716;7.016;2023-04-27T03:54:25;2.10;99.90
71754;DHT22;59593;51.716;7.016;2023-04-27T03:56:50;2.20;99.90
71754;DHT22;59593;51.716;7.016;2023-04-27T03:59:16;2.20;99.90
71754;DHT22;59593;51.716;7.016;2023-04-27T04:01:42;2.20;99.90
71754;DHT22;59593;51.716;7.016;2023-04-27T04:04:08;2.10;99.90
71754;DHT22;59593;51.716;7.016;2023-04-27T04:06:33;2.10;99.90
71754;DHT22;59593;51.716;7.016;2023-04-27T04:08:59;2.20;99.90
71754;DHT22;59593;51.716;7.016;2023-04-27T04:11:24;2.20;99.90
71754;DHT22;59593;51.716;7.016;2023-04-27T04:13:50;2.20;99.90
71754;DHT22;59593;51.716;7.016;2023-04-27T04:16:16;2.20;99.90
71754;DHT22;59593;51.716;7.016;2023-04-27T04:18:41;2.20;99.90
71754;DHT22;59593;51.716;7.016;2023-04-27T04:21:08;2.20;99.90
71754;DHT22;59593;51.716;7.016;2023-04-27T04:23:35;2.10;99.90
71754;DHT22;59593;51.716;7.016;2023-04-27T04:26:01;2.10;99.90
71754;DHT22;59593;51.716;7.016;2023-04-27T04:28:27;2.10;99.90
71754;DHT22;59593;51.716;7.016;2023-04-27T04:30:52;2.10;99.90
71754;DHT22;59593;51.716;7.016;2023-04-27T04:33:18;2.10;99.90
71754;DHT22;59593;51.716;7.016;2023-04-27T04:35:44;2.00;99.90
71754;DHT22;59593;51.716;7.016;2023-04-27T04:38:11;1.90;99.90
71754;DHT22;59593;51.716;7.016;2023-04-27T04:40:37;2.00;99.90
71754;DHT22;59593;51.716;7.016;2023-04-27T04:43:03;2.00;99.90
71754;DHT22;59593;51.716;7.016;2023-04-27T04:45:29;2.00;99.90
71754;DHT22;59593;51.716;7.016;2023-04-27T04:47:55;1.90;99.90
71754;DHT22;59593;51.716;7.016;2023-04-27T04:50:20;1.90;99.90
71754;DHT22;59593;51.716;7.016;2023-04-27T04:52:47;1.90;99.90
71754;DHT22;59593;51.716;7.016;2023-04-27T04:55:13;2.00;99.90
71754;DHT22;59593;51.716;7.016;2023-04-27T04:57:38;2.20;99.90
71754;DHT22;59593;51.716;7.016;2023-04-27T05:00:05;2.30;99.90
71754;DHT22;59593;51.716;7.016;2023-04-27T05:02:38;2.40;99.90
71754;DHT22;59593;51.716;7.016;2023-04-27T05:05:04;2.40;99.90
71754;DHT22;59593;51.716;7.016;2023-04-27T05:07:30;2.50;99.90
71754;DHT22;59593;51.716;7.016;2023-04-27T05:09:55;2.50;99.90
71754;DHT22;59593;51.716;7.016;2023-04-27T05:12:21;2.50;99.90
71754;DHT22;59593;51.716;7.016;2023-04-27T05:14:47;2.60;99.90
71754;DHT22;59593;51.716;7.016;2023-04-27T05:17:13;2.60;99.90
71754;DHT22;59593;51.716;7.016;2023-04-27T05:19:39;2.70;99.90
71754;DHT22;59593;51.716;7.016;2023-04-27T05:22:04;2.80;99.90
71754;DHT22;59593;51.716;7.016;2023-04-27T05:24:30;2.90;99.90
71754;DHT22;59593;51.716;7.016;2023-04-27T05:26:55;3.10;99.90
71754;DHT22;59593;51.716;7.016;2023-04-27T05:29:21;3.10;99.90
71754;DHT22;59593;51.716;7.016;2023-04-27T05:31:47;3.20;99.90
71754;DHT22;59593;51.716;7.016;2023-04-27T05:34:13;3.20;99.90
71754;DHT22;59593;51.716;7.016;2023-04-27T05:36:38;3.30;99.90
71754;DHT22;59593;51.716;7.016;2023-04-27T05:39:04;3.40;99.90
71754;DHT22;59593;51.716;7.016;2023-04-27T05:41:30;3.40;99.90
71754;DHT22;59593;51.716;7.016;2023-04-27T05:43:56;3.50;99.90
71754;DHT22;59593;51.716;7.016;2023-04-27T05:46:21;3.70;99.90
71754;DHT22;59593;51.716;7.016;2023-04-27T05:48:47;3.90;99.90
71754;DHT22;59593;51.716;7.016;2023-04-27T05:51:12;4.00;99.90
71754;DHT22;59593;51.716;7.016;2023-04-27T05:53:38;4.10;99.90
71754;DHT22;59593;51.716;7.016;2023-04-27T05:56:04;4.20;99.90
71754;DHT22;59593;51.716;7.016;2023-04-27T05:58:31;4.30;99.90
71754;DHT22;59593;51.716;7.016;2023-04-27T06:00:58;4.30;99.90
71754;DHT22;59593;51.716;7.016;2023-04-27T06:03:24;4.30;99.90
71754;DHT22;59593;51.716;7.016;2023-04-27T06:05:58;4.40;99.90
71754;DHT22;59593;51.716;7.016;2023-04-27T06:08:24;4.40;99.90
71754;DHT22;59593;51.716;7.016;2023-04-27T06:10:50;4.50;99.90
71754;DHT22;59593;51.716;7.016;2023-04-27T06:13:16;4.70;99.90
71754;DHT22;59593;51.716;7.016;2023-04-27T06:15:42;4.80;99.90
71754;DHT22;59593;51.716;7.016;2023-04-27T06:18:07;4.90;99.90
71754;DHT22;59593;51.716;7.016;2023-04-27T06:20:33;5.00;99.90
71754;DHT22;59593;51.716;7.016;2023-04-27T06:22:59;5.00;99.90
71754;DHT22;59593;51.716;7.016;2023-04-27T06:25:25;5.10;99.90
71754;DHT22;59593;51.716;7.016;2023-04-27T06:27:56;5.30;99.90
71754;DHT22;59593;51.716;7.016;2023-04-27T06:30:25;5.30;99.90
71754;DHT22;59593;51.716;7.016;2023-04-27T06:32:50;5.50;99.90
71754;DHT22;59593;51.716;7.016;2023-04-27T06:35:17;5.50;99.90
71754;DHT22;59593;51.716;7.016;2023-04-27T06:37:42;5.50;99.90
71754;DHT22;59593;51.716;7.016;2023-04-27T06:40:09;5.70;99.90
71754;DHT22;59593;51.716;7.016;2023-04-27T06:42:35;5.70;99.90
71754;DHT22;59593;51.716;7.016;2023-04-27T06:45:01;5.90;99.90
71754;DHT22;59593;51.716;7.016;2023-04-27T06:47:26;6.10;99.90
71754;DHT22;59593;51.716;7.016;2023-04-27T06:49:52;6.10;99.90
71754;DHT22;59593;51.716;7.016;2023-04-27T06:52:17;6.10;99.90
71754;DHT22;59593;51.716;7.016;2023-04-27T06:54:43;6.20;99.90
71754;DHT22;59593;51.716;7.016;2023-04-27T06:57:09;6.30;99.90
71754;DHT22;59593;51.716;7.016;2023-04-27T06:59:35;6.40;99.90
71754;DHT22;59593;51.716;7.016;2023-04-27T07:02:00;6.50;99.90
71754;DHT22;59593;51.716;7.016;2023-04-27T07:04:26;6.60;99.90
71754;DHT22;59593;51.716;7.016;2023-04-27T07:06:52;6.60;99.90
71754;DHT22;59593;51.716;7.016;2023-04-27T07:09:17;6.80;99.90
71754;DHT22;59593;51.716;7.016;2023-04-27T07:11:43;6.90;99.90
71754;DHT22;59593;51.716;7.016;2023-04-27T07:14:08;7.00;99.90
71754;DHT22;59593;51.716;7.016;2023-04-27T07:16:34;6.90;99.90
71754;DHT22;59593;51.716;7.016;2023-04-27T07:19:00;7.00;99.90
71754;DHT22;59593;51.716;7.016;2023-04-27T07:21:25;7.00;99.90
71754;DHT22;59593;51.716;7.016;2023-04-27T07:23:52;7.20;99.90
71754;DHT22;59593;51.716;7.016;2023-04-27T07:26:18;7.30;99.90
71754;DHT22;59593;51.716;7.016;2023-04-27T07:28:44;7.50;99.90
71754;DHT22;59593;51.716;7.016;2023-04-27T07:31:11;7.40;99.90
71754;DHT22;59593;51.716;7.016;2023-04-27T07:33:37;7.50;99.90
71754;DHT22;59593;51.716;7.016;2023-04-27T07:36:03;7.60;99.90
71754;DHT22;59593;51.716;7.016;2023-04-27T07:38:29;7.70;99.90
71754;DHT22;59593;51.716;7.016;2023-04-27T07:40:59;7.70;99.90
71754;DHT22;59593;51.716;7.016;2023-04-27T07:43:26;7.70;99.90
71754;DHT22;59593;51.716;7.016;2023-04-27T07:45:52;7.90;99.90
71754;DHT22;59593;51.716;7.016;2023-04-27T07:48:18;8.00;99.90
71754;DHT22;59593;51.716;7.016;2023-04-27T07:50:44;8.10;99.90
71754;DHT22;59593;51.716;7.016;2023-04-27T07:53:10;8.10;99.90
71754;DHT22;59593;51.716;7.016;2023-04-27T07:55:36;8.20;99.90
71754;DHT22;59593;51.716;7.016;2023-04-27T07:58:03;8.50;99.90
71754;DHT22;59593;51.716;7.016;2023-04-27T08:00:29;8.60;99.90
71754;DHT22;59593;51.716;7.016;2023-04-27T08:02:54;8.70;99.90
71754;DHT22;59593;51.716;7.016;2023-04-27T08:05:20;8.60;99.90
71754;DHT22;59593;51.716;7.016;2023-04-27T08:07:46;8.80;99.90
71754;DHT22;59593;51.716;7.016;2023-04-27T08:10:12;9.00;99.90
71754;DHT22;59593;51.716;7.016;2023-04-27T08:12:38;8.90;99.90
71754;DHT22;59593;51.716;7.016;2023-04-27T08:15:04;9.00;99.90
71754;DHT22;59593;51.716;7.016;2023-04-27T08:17:30;8.80;99.90
71754;DHT22;59593;51.716;7.016;2023-04-27T08:19:55;8.80;99.90
71754;DHT22;59593;51.716;7.016;2023-04-27T08:22:21;8.90;99.90
71754;DHT22;59593;51.716;7.016;2023-04-27T08:24:47;9.10;99.90
71754;DHT22;59593;51.716;7.016;2023-04-27T08:27:12;9.30;99.90
71754;DHT22;59593;51.716;7.016;2023-04-27T08:29:38;9.30;99.90
71754;DHT22;59593;51.716;7.016;2023-04-27T08:32:04;9.30;99.90
71754;DHT22;59593;51.716;7.016;2023-04-27T08:34:30;9.50;99.90
71754;DHT22;59593;51.716;7.016;2023-04-27T08:36:56;9.70;99.90
71754;DHT22;59593;51.716;7.016;2023-04-27T08:39:22;9.80;99.90
71754;DHT22;59593;51.716;7.016;2023-04-27T08:41:48;10.00;99.90
71754;DHT22;59593;51.716;7.016;2023-04-27T08:44:14;9.90;99.90
71754;DHT22;59593;51.716;7.016;2023-04-27T08:46:40;10.20;99.90
71754;DHT22;59593;51.716;7.016;2023-04-27T08:49:06;10.30;99.90
71754;DHT22;59593;51.716;7.016;2023-04-27T08:51:32;10.20;99.90
71754;DHT22;59593;51.716;7.016;2023-04-27T08:53:58;9.90;99.90
71754;DHT22;59593;51.716;7.016;2023-04-27T08:56:25;10.10;99.90
71754;DHT22;59593;51.716;7.016;2023-04-27T08:58:52;9.90;99.90
71754;DHT22;59593;51.716;7.016;2023-04-27T09:01:18;10.00;99.90
71754;DHT22;59593;51.716;7.016;2023-04-27T09:03:45;10.00;99.90
71754;DHT22;59593;51.716;7.016;2023-04-27T09:06:14;10.20;99.90
71754;DHT22;59593;51.716;7.016;2023-04-27T09:08:48;10.50;99.90
71754;DHT22;59593;51.716;7.016;2023-04-27T09:11:14;10.50;99.90
71754;DHT22;59593;51.716;7.016;2023-04-27T09:13:42;10.40;99.90
71754;DHT22;59593;51.716;7.016;2023-04-27T09:16:11;10.70;99.90
71754;DHT22;59593;51.716;7.016;2023-04-27T09:18:40;10.90;99.90
71754;DHT22;59593;51.716;7.016;2023-04-27T09:21:06;11.00;99.90
71754;DHT22;59593;51.716;7.016;2023-04-27T09:23:35;10.90;99.90
71754;DHT22;59593;51.716;7.016;2023-04-27T09:26:04;11.10;99.90
71754;DHT22;59593;51.716;7.016;2023-04-27T09:28:33;11.40;99.90
71754;DHT22;59593;51.716;7.016;2023-04-27T09:31:01;11.30;99.90
71754;DHT22;59593;51.716;7.016;2023-04-27T09:33:29;11.20;99.90
71754;DHT22;59593;51.716;7.016;2023-04-27T09:35:57;11.20;99.90
71754;DHT22;59593;51.716;7.016;2023-04-27T09:38:23;11.50;99.90
71754;DHT22;59593;51.716;7.016;2023-04-27T09:40:50;11.50;99.90
71754;DHT22;59593;51.716;7.016;2023-04-27T09:43:16;11.30;99.90
71754;DHT22;59593;51.716;7.016;2023-04-27T09:45:42;11.40;99.90
71754;DHT22;59593;51.716;7.016;2023-04-27T09:48:08;11.90;99.90
71754;DHT22;59593;51.716;7.016;2023-04-27T09:50:36;12.00;99.90
71754;DHT22;59593;51.716;7.016;2023-04-27T09:53:04;11.70;99.90
71754;DHT22;59593;51.716;7.016;2023-04-27T09:55:35;12.10;99.90
71754;DHT22;59593;51.716;7.016;2023-04-27T09:58:29;12.30;99.90
71754;DHT22;59593;51.716;7.016;2023-04-27T10:01:22;12.50;99.90
71754;DHT22;59593;51.716;7.016;2023-04-27T10:03:57;12.40;97.80
71754;DHT22;59593;51.716;7.016;2023-04-27T10:09:25;12.50;99.90
71754;DHT22;59593;51.716;7.016;2023-04-27T10:11:52;13.00;99.90
71754;DHT22;59593;51.716;7.016;2023-04-27T10:14:23;13.10;99.40
71754;DHT22;59593;51.716;7.016;2023-04-27T10:16:56;13.00;97.90
71754;DHT22;59593;51.716;7.016;2023-04-27T10:19:23;12.90;96.00
71754;DHT22;59593;51.716;7.016;2023-04-27T10:21:56;12.40;96.80
71754;DHT22;59593;51.716;7.016;2023-04-27T10:27:02;13.10;98.20
71754;DHT22;59593;51.716;7.016;2023-04-27T10:29:41;13.10;93.80
71754;DHT22;59593;51.716;7.016;2023-04-27T10:32:08;13.30;95.50
71754;DHT22;59593;51.716;7.016;2023-04-27T10:34:35;13.20;93.40
71754;DHT22;59593;51.716;7.016;2023-04-27T10:37:09;13.40;93.30
71754;DHT22;59593;51.716;7.016;2023-04-27T10:39:38;13.50;90.00
71754;DHT22;59593;51.716;7.016;2023-04-27T10:42:04;13.60;89.00
71754;DHT22;59593;51.716;7.016;2023-04-27T10:44:32;13.40;88.70
71754;DHT22;59593;51.716;7.016;2023-04-27T10:47:13;13.70;89.70
71754;DHT22;59593;51.716;7.016;2023-04-27T10:49:39;14.00;89.80
71754;DHT22;59593;51.716;7.016;2023-04-27T10:52:05;14.10;89.60
71754;DHT22;59593;51.716;7.016;2023-04-27T10:54:31;13.80;84.80
71754;DHT22;59593;51.716;7.016;2023-04-27T10:57:07;14.10;83.90
71754;DHT22;59593;51.716;7.016;2023-04-27T10:59:34;14.30;87.30
71754;DHT22;59593;51.716;7.016;2023-04-27T11:02:01;14.20;79.20
71754;DHT22;59593;51.716;7.016;2023-04-27T11:04:37;14.30;79.90
71754;DHT22;59593;51.716;7.016;2023-04-27T11:07:03;14.00;79.80
71754;DHT22;59593;51.716;7.016;2023-04-27T11:09:29;13.90;79.60
71754;DHT22;59593;51.716;7.016;2023-04-27T11:11:54;14.40;81.50
71754;DHT22;59593;51.716;7.016;2023-04-27T11:14:20;14.60;80.40
71754;DHT22;59593;51.716;7.016;2023-04-27T11:16:49;14.30;72.80
71754;DHT22;59593;51.716;7.016;2023-04-27T11:19:14;13.60;75.90
71754;DHT22;59593;51.716;7.016;2023-04-27T11:21:41;13.50;73.90
71754;DHT22;59593;51.716;7.016;2023-04-27T11:24:07;13.80;79.60
71754;DHT22;59593;51.716;7.016;2023-04-27T11:26:33;14.20;74.80
71754;DHT22;59593;51.716;7.016;2023-04-27T11:29:03;13.50;73.80
71754;DHT22;59593;51.716;7.016;2023-04-27T11:31:42;14.00;73.00
71754;DHT22;59593;51.716;7.016;2023-04-27T11:34:18;14.30;75.70
71754;DHT22;59593;51.716;7.016;2023-04-27T11:36:54;14.40;76.10
71754;DHT22;59593;51.716;7.016;2023-04-27T11:39:20;14.70;74.10
71754;DHT22;59593;51.716;7.016;2023-04-27T11:41:46;14.40;68.80
71754;DHT22;59593;51.716;7.016;2023-04-27T11:44:12;14.90;73.80
71754;DHT22;59593;51.716;7.016;2023-04-27T11:46:38;15.20;75.40
71754;DHT22;59593;51.716;7.016;2023-04-27T11:49:08;14.50;66.50
71754;DHT22;59593;51.716;7.016;2023-04-27T11:51:34;14.90;82.20
71754;DHT22;59593;51.716;7.016;2023-04-27T11:54:04;15.20;74.50
71754;DHT22;59593;51.716;7.016;2023-04-27T11:56:41;15.50;71.40
71754;DHT22;59593;51.716;7.016;2023-04-27T11:59:18;15.40;73.80
71754;DHT22;59593;51.716;7.016;2023-04-27T12:01:43;15.70;73.30
71754;DHT22;59593;51.716;7.016;2023-04-27T12:04:09;15.80;69.30
71754;DHT22;59593;51.716;7.016;2023-04-27T12:06:35;15.00;69.20
71754;DHT22;59593;51.716;7.016;2023-04-27T12:09:01;15.30;67.40
71754;DHT22;59593;51.716;7.016;2023-04-27T12:11:28;15.30;66.20
71754;DHT22;59593;51.716;7.016;2023-04-27T12:13:54;14.70;60.60
71754;DHT22;59593;51.716;7.016;2023-04-27T12:16:20;14.70;65.30
71754;DHT22;59593;51.716;7.016;2023-04-27T12:18:48;14.60;68.40
71754;DHT22;59593;51.716;7.016;2023-04-27T12:21:14;14.90;63.50
71754;DHT22;59593;51.716;7.016;2023-04-27T12:23:40;15.70;65.40
71754;DHT22;59593;51.716;7.016;2023-04-27T12:26:05;15.00;62.30
71754;DHT22;59593;51.716;7.016;2023-04-27T12:28:31;15.20;61.60
71754;DHT22;59593;51.716;7.016;2023-04-27T12:30:56;15.20;64.90
71754;DHT22;59593;51.716;7.016;2023-04-27T12:33:22;15.60;67.90
71754;DHT22;59593;51.716;7.016;2023-04-27T12:35:48;15.00;63.90
71754;DHT22;59593;51.716;7.016;2023-04-27T12:38:13;15.60;65.30
71754;DHT22;59593;51.716;7.016;2023-04-27T12:40:39;15.80;69.90
71754;DHT22;59593;51.716;7.016;2023-04-27T12:43:06;15.40;67.20
71754;DHT22;59593;51.716;7.016;2023-04-27T12:45:32;15.40;65.80
71754;DHT22;59593;51.716;7.016;2023-04-27T12:47:57;15.30;63.10
71754;DHT22;59593;51.716;7.016;2023-04-27T12:50:23;15.50;61.20
71754;DHT22;59593;51.716;7.016;2023-04-27T12:52:49;15.90;61.10
71754;DHT22;59593;51.716;7.016;2023-04-27T12:55:14;16.20;62.70
71754;DHT22;59593;51.716;7.016;2023-04-27T12:57:40;16.30;59.40
71754;DHT22;59593;51.716;7.016;2023-04-27T13:00:06;16.20;59.00
71754;DHT22;59593;51.716;7.016;2023-04-27T13:02:35;15.50;58.60
71754;DHT22;59593;51.716;7.016;2023-04-27T13:05:04;15.60;59.00
71754;DHT22;59593;51.716;7.016;2023-04-27T13:07:32;15.90;67.20
71754;DHT22;59593;51.716;7.016;2023-04-27T13:09:57;16.40;64.90
71754;DHT22;59593;51.716;7.016;2023-04-27T13:12:23;15.90;61.30
71754;DHT22;59593;51.716;7.016;2023-04-27T13:14:49;16.30;61.50
71754;DHT22;59593;51.716;7.016;2023-04-27T13:17:16;16.90;60.80
71754;DHT22;59593;51.716;7.016;2023-04-27T13:19:42;16.60;58.00
71754;DHT22;59593;51.716;7.016;2023-04-27T13:22:07;16.90;59.50
71754;DHT22;59593;51.716;7.016;2023-04-27T13:24:34;16.60;57.60
71754;DHT22;59593;51.716;7.016;2023-04-27T13:27:00;16.20;58.30
71754;DHT22;59593;51.716;7.016;2023-04-27T13:29:26;16.40;62.10
71754;DHT22;59593;51.716;7.016;2023-04-27T13:31:51;16.90;62.20
71754;DHT22;59593;51.716;7.016;2023-04-27T13:34:17;16.90;61.80
71754;DHT22;59593;51.716;7.016;2023-04-27T13:36:43;16.60;58.10
71754;DHT22;59593;51.716;7.016;2023-04-27T13:39:08;17.10;67.90
71754;DHT22;59593;51.716;7.016;2023-04-27T13:41:34;17.20;59.80
71754;DHT22;59593;51.716;7.016;2023-04-27T13:44:00;17.10;56.00
71754;DHT22;59593;51.716;7.016;2023-04-27T13:46:26;17.30;57.10
71754;DHT22;59593;51.716;7.016;2023-04-27T13:48:52;17.60;58.20
71754;DHT22;59593;51.716;7.016;2023-04-27T13:51:17;17.80;62.60
71754;DHT22;59593;51.716;7.016;2023-04-27T13:53:44;17.00;59.20
71754;DHT22;59593;51.716;7.016;2023-04-27T13:56:10;17.50;60.30
71754;DHT22;59593;51.716;7.016;2023-04-27T13:58:35;17.30;58.20
71754;DHT22;59593;51.716;7.016;2023-04-27T14:01:01;16.90;57.20
71754;DHT22;59593;51.716;7.016;2023-04-27T14:03:27;16.90;58.10
71754;DHT22;59593;51.716;7.016;2023-04-27T14:05:54;16.20;57.20
71754;DHT22;59593;51.716;7.016;2023-04-27T14:08:20;16.00;57.50
71754;DHT22;59593;51.716;7.016;2023-04-27T14:10:46;16.00;57.50
71754;DHT22;59593;51.716;7.016;2023-04-27T14:13:12;16.40;57.40
71754;DHT22;59593;51.716;7.016;2023-04-27T14:15:38;16.30;57.40
71754;DHT22;59593;51.716;7.016;2023-04-27T14:18:04;15.80;59.20
71754;DHT22;59593;51.716;7.016;2023-04-27T14:20:31;16.50;58.10
71754;DHT22;59593;51.716;7.016;2023-04-27T14:22:56;16.70;57.70
71754;DHT22;59593;51.716;7.016;2023-04-27T14:25:22;17.00;60.00
71754;DHT22;59593;51.716;7.016;2023-04-27T14:27:48;17.40;62.90
71754;DHT22;59593;51.716;7.016;2023-04-27T14:30:13;17.10;57.70
71754;DHT22;59593;51.716;7.016;2023-04-27T14:32:39;17.20;55.60
71754;DHT22;59593;51.716;7.016;2023-04-27T14:35:06;17.10;57.60
71754;DHT22;59593;51.716;7.016;2023-04-27T14:37:32;16.70;57.40
71754;DHT22;59593;51.716;7.016;2023-04-27T14:39:59;16.40;59.00
71754;DHT22;59593;51.716;7.016;2023-04-27T14:42:25;16.30;59.80
71754;DHT22;59593;51.716;7.016;2023-04-27T14:44:50;16.20;57.40
71754;DHT22;59593;51.716;7.016;2023-04-27T14:47:16;16.00;56.90
71754;DHT22;59593;51.716;7.016;2023-04-27T14:49:42;15.90;58.50
71754;DHT22;59593;51.716;7.016;2023-04-27T14:52:08;15.40;57.90
71754;DHT22;59593;51.716;7.016;2023-04-27T14:54:33;15.40;60.70
71754;DHT22;59593;51.716;7.016;2023-04-27T14:57:00;15.80;59.20
71754;DHT22;59593;51.716;7.016;2023-04-27T14:59:26;16.30;60.00
71754;DHT22;59593;51.716;7.016;2023-04-27T15:01:52;16.20;58.50
71754;DHT22;59593;51.716;7.016;2023-04-27T15:04:17;16.40;58.70
71754;DHT22;59593;51.716;7.016;2023-04-27T15:06:43;16.20;58.20
71754;DHT22;59593;51.716;7.016;2023-04-27T15:09:08;15.90;58.80
71754;DHT22;59593;51.716;7.016;2023-04-27T15:11:35;15.50;60.30
71754;DHT22;59593;51.716;7.016;2023-04-27T15:14:01;15.80;61.90
71754;DHT22;59593;51.716;7.016;2023-04-27T15:16:27;15.20;58.80
71754;DHT22;59593;51.716;7.016;2023-04-27T15:18:52;15.00;59.50
71754;DHT22;59593;51.716;7.016;2023-04-27T15:21:18;15.30;62.50
71754;DHT22;59593;51.716;7.016;2023-04-27T15:23:43;15.40;62.60
71754;DHT22;59593;51.716;7.016;2023-04-27T15:26:09;15.20;60.30
71754;DHT22;59593;51.716;7.016;2023-04-27T15:28:35;15.10;61.90
71754;DHT22;59593;51.716;7.016;2023-04-27T15:31:01;14.90;59.90
71754;DHT22;59593;51.716;7.016;2023-04-27T15:33:27;15.10;64.70
71754;DHT22;59593;51.716;7.016;2023-04-27T15:35:53;15.20;63.00
71754;DHT22;59593;51.716;7.016;2023-04-27T15:38:19;15.30;64.20
71754;DHT22;59593;51.716;7.016;2023-04-27T15:40:44;15.20;62.20